Portada
METAR-TAF:

METAR-TAF

Aeroports :

Sharurah, Aràbia Saudita

latitud: 17-28N, longitud: 047-07E, altitud: 720 m

Observació

L'informe es va fer fa 1 hora i 25 minuts, a les 20:00 UTC
Vent calma
Temperatura 37°C
Humitat 18%
Pressió 1005 hPa
Visibilitat: 6000 m

METAR: OESH 192000Z 00000KT 6000 NSC 37/09 Q1005 NOSIG

Hora: 00:25 (21:25 UTC)

Pronòstic

L'informe es va fer fa 10 hores i 25 minuts, a les 11:00 UTC
Pronòstic vàlid del 19 a les 12 UTC al 20 a les 18 UTC
Vent 10 kt del Nord amb ràfegues de 20 kt
Visibilitat: 7000 m
Escasses núvols a una alçada de 4000 ft
Temporalment
l' 19 a les 12 UTC al 20 a les 03 UTC
Visibilitat: 3500 m
Pols estès, torb alta de pols
Probabilitat 30%
l' 19 a les 16 UTC al 19 a les 24 UTC
Visibilitat: 0800 m
tempesta de sorra

TAF: OESH 191100Z 1912/2018 36010G20KT 7000 FEW040 TEMPO 1912/2003 3500 DU BLDU PROB30 1916/1924 0800 SS

Observacions i pronòstics meteorològics de més de 4000 aeroports (METAR i TAF).

Les estacions disponibles són els punts grocs i vermells al mapa.

Posi el ratolí al punt desitjat per veure el nom de l'estació.

Feu clic per veure les observacions i els pronòstics meteorològics.

Per canviar el mapa: feu clic els botons verds amb una creu de color negre per apropar; al botó verd amb un guió per allunyar la imatge; o en les fletxes verdes per a mapes adjacents.


METAR-TAF: